ITY2056 LIRF-LIML
Flight info
| Callsign | ITY2056 |
|---|---|
| Flight time | 0h 56m |
| Altitude | 34000 |
| Route | GILIO DCT KARDU DCT EMBOS DCT GIPIX DCT KALMO |
| Aircraft | A20N/M-SDE2E3FGHIRWXY/LB1 |
Departure
| Time | 2026-05-06 16:41 |
|---|---|
| Airport | Rome–Fiumicino Leonardo da Vinci International Airport (LIRF) |
Arrival
| Time | 2026-05-06 17:38 |
|---|---|
| Airport | Milano Linate Airport (LIML) |
| Time | Latitude | Longitude | Altitude | Speed | Heading |
|---|---|---|---|---|---|
| 2026-05-06 16:13 | 41.79753 | 12.25509 | 21 ft | 0 kts | 115° |
| 2026-05-06 16:27 | 41.79757 | 12.25499 | 21 ft | 3 kts | 115° |
| 2026-05-06 16:27 | 41.79765 | 12.25476 | 22 ft | 3 kts | 115° |
| 2026-05-06 16:27 | 41.79774 | 12.25452 | 22 ft | 3 kts | 93° |
| 2026-05-06 16:27 | 41.79767 | 12.25433 | 25 ft | 0 kts | 25° |
| 2026-05-06 16:31 | 41.79768 | 12.25434 | 25 ft | 1 kts | 25° |
| 2026-05-06 16:31 | 41.79792 | 12.25447 | 23 ft | 8 kts | 23° |
| 2026-05-06 16:32 | 41.79872 | 12.25496 | 21 ft | 17 kts | 25° |
| 2026-05-06 16:32 | 41.79985 | 12.25570 | 23 ft | 7 kts | 42° |
| 2026-05-06 16:32 | 41.79991 | 12.25628 | 21 ft | 8 kts | 110° |
| 2026-05-06 16:32 | 41.79960 | 12.25721 | 21 ft | 14 kts | 115° |
| 2026-05-06 16:33 | 41.79943 | 12.25768 | 21 ft | 0 kts | 115° |
| 2026-05-06 16:33 | 41.79940 | 12.25775 | 21 ft | 4 kts | 115° |
| 2026-05-06 16:33 | 41.79924 | 12.25828 | 23 ft | 5 kts | 97° |
| 2026-05-06 16:34 | 41.80091 | 12.25957 | 20 ft | 26 kts | 24° |
| 2026-05-06 16:34 | 41.80276 | 12.26071 | 16 ft | 31 kts | 25° |
| 2026-05-06 16:34 | 41.80473 | 12.26175 | 16 ft | 28 kts | 8° |
| 2026-05-06 16:34 | 41.80524 | 12.26226 | 16 ft | 4 kts | 66° |
| 2026-05-06 16:35 | 41.80535 | 12.26260 | 18 ft | 6 kts | 68° |
| 2026-05-06 16:35 | 41.80568 | 12.26380 | 19 ft | 21 kts | 70° |
| 2026-05-06 16:35 | 41.80633 | 12.26622 | 18 ft | 30 kts | 70° |
| 2026-05-06 16:35 | 41.80703 | 12.26875 | 12 ft | 26 kts | 70° |
| 2026-05-06 16:36 | 41.80760 | 12.27035 | 13 ft | 15 kts | 32° |
| 2026-05-06 16:36 | 41.80845 | 12.27023 | 12 ft | 12 kts | 340° |
| 2026-05-06 16:36 | 41.80878 | 12.27006 | 12 ft | 0 kts | 340° |
| 2026-05-06 16:39 | 41.80942 | 12.26965 | 13 ft | 20 kts | 315° |
| 2026-05-06 16:39 | 41.80951 | 12.26914 | 13 ft | 0 kts | 237° |
| 2026-05-06 16:39 | 41.80951 | 12.26913 | 13 ft | 0 kts | 249° |
| 2026-05-06 16:40 | 41.80907 | 12.26752 | 12 ft | 63 kts | 250° |
| 2026-05-06 16:41 | 41.80639 | 12.25773 | 20 ft | 160 kts | 247° |
| 2026-05-06 16:41 | 41.80205 | 12.24131 | 318 ft | 207 kts | 246° |
| 2026-05-06 16:41 | 41.79699 | 12.22247 | 916 ft | 222 kts | 245° |
| 2026-05-06 16:41 | 41.79347 | 12.20203 | 1889 ft | 229 kts | 259° |
| 2026-05-06 16:42 | 41.79226 | 12.17976 | 2871 ft | 253 kts | 263° |
| 2026-05-06 16:42 | 41.79147 | 12.15466 | 3644 ft | 288 kts | 265° |
| 2026-05-06 16:42 | 41.79083 | 12.12675 | 4651 ft | 306 kts | 265° |
| 2026-05-06 16:42 | 41.79037 | 12.09852 | 6328 ft | 299 kts | 267° |
| 2026-05-06 16:43 | 41.79031 | 12.07104 | 8153 ft | 291 kts | 268° |
| 2026-05-06 16:43 | 41.79023 | 12.04444 | 9994 ft | 282 kts | 267° |
| 2026-05-06 16:43 | 41.79020 | 12.01801 | 11248 ft | 290 kts | 267° |
| 2026-05-06 16:43 | 41.79013 | 11.99001 | 12074 ft | 310 kts | 267° |
| 2026-05-06 16:44 | 41.79006 | 11.96059 | 13091 ft | 321 kts | 267° |
| 2026-05-06 16:44 | 41.78999 | 11.93027 | 14175 ft | 329 kts | 267° |
| 2026-05-06 16:44 | 41.78991 | 11.89934 | 15261 ft | 335 kts | 266° |
| 2026-05-06 16:44 | 41.79007 | 11.86793 | 16378 ft | 340 kts | 269° |
| 2026-05-06 16:45 | 41.79433 | 11.83623 | 17425 ft | 354 kts | 285° |
| 2026-05-06 16:45 | 41.80504 | 11.80614 | 18502 ft | 363 kts | 294° |
| 2026-05-06 16:45 | 41.81790 | 11.77683 | 19428 ft | 367 kts | 296° |
| 2026-05-06 16:45 | 41.83118 | 11.74744 | 20404 ft | 369 kts | 296° |
| 2026-05-06 16:46 | 41.84451 | 11.71782 | 21353 ft | 372 kts | 295° |
| 2026-05-06 16:46 | 41.85787 | 11.68793 | 22322 ft | 375 kts | 295° |
| 2026-05-06 16:46 | 41.87129 | 11.65775 | 23250 ft | 379 kts | 295° |
| 2026-05-06 16:46 | 41.88478 | 11.62729 | 23759 ft | 380 kts | 294° |
| 2026-05-06 16:47 | 41.89894 | 11.59719 | 23919 ft | 385 kts | 300° |
| 2026-05-06 16:47 | 41.91607 | 11.56979 | 23947 ft | 391 kts | 306° |
| 2026-05-06 16:47 | 41.93475 | 11.54307 | 24019 ft | 395 kts | 307° |
| 2026-05-06 16:47 | 41.95381 | 11.51629 | 24596 ft | 398 kts | 307° |
| 2026-05-06 16:48 | 41.97297 | 11.48935 | 25370 ft | 399 kts | 306° |
| 2026-05-06 16:48 | 41.99219 | 11.46223 | 26103 ft | 402 kts | 306° |
| 2026-05-06 16:48 | 42.01148 | 11.43492 | 26773 ft | 405 kts | 306° |
| 2026-05-06 16:48 | 42.03093 | 11.40731 | 27427 ft | 408 kts | 305° |
| 2026-05-06 16:49 | 42.05051 | 11.37947 | 28076 ft | 411 kts | 305° |
| 2026-05-06 16:49 | 42.07023 | 11.35140 | 28666 ft | 415 kts | 305° |
| 2026-05-06 16:49 | 42.09015 | 11.32302 | 29252 ft | 419 kts | 305° |
| 2026-05-06 16:49 | 42.11025 | 11.29435 | 29826 ft | 423 kts | 306° |
| 2026-05-06 16:50 | 42.13065 | 11.26519 | 30172 ft | 431 kts | 305° |
| 2026-05-06 16:50 | 42.15123 | 11.23581 | 30789 ft | 430 kts | 305° |
| 2026-05-06 16:50 | 42.17167 | 11.20666 | 31525 ft | 426 kts | 304° |
| 2026-05-06 16:50 | 42.18511 | 11.18748 | 32006 ft | 424 kts | 303° |
| 2026-05-06 16:51 | 42.21205 | 11.14890 | 32752 ft | 423 kts | 303° |
| 2026-05-06 16:51 | 42.23221 | 11.11996 | 32923 ft | 422 kts | 302° |
| 2026-05-06 16:51 | 42.25224 | 11.09120 | 32933 ft | 421 kts | 302° |
| 2026-05-06 16:52 | 42.29231 | 11.03352 | 33052 ft | 421 kts | 302° |
| 2026-05-06 16:52 | 42.30562 | 11.01435 | 33388 ft | 421 kts | 302° |
| 2026-05-06 16:52 | 42.33242 | 10.97572 | 33884 ft | 421 kts | 301° |
| 2026-05-06 16:53 | 42.37602 | 10.92203 | 33925 ft | 438 kts | 315° |
| 2026-05-06 16:53 | 42.43007 | 10.88134 | 33927 ft | 448 kts | 322° |
| 2026-05-06 16:54 | 42.48608 | 10.84373 | 33926 ft | 450 kts | 323° |
| 2026-05-06 16:54 | 42.54233 | 10.80648 | 33929 ft | 449 kts | 323° |
| 2026-05-06 16:55 | 42.59838 | 10.76910 | 33925 ft | 449 kts | 323° |
| 2026-05-06 16:55 | 42.65394 | 10.73176 | 33928 ft | 449 kts | 323° |
| 2026-05-06 16:56 | 42.70981 | 10.69407 | 33926 ft | 448 kts | 323° |
| 2026-05-06 16:56 | 42.76566 | 10.65631 | 33930 ft | 447 kts | 324° |
| 2026-05-06 16:57 | 42.82129 | 10.61865 | 33929 ft | 446 kts | 324° |
| 2026-05-06 16:57 | 42.87689 | 10.58093 | 33929 ft | 446 kts | 324° |
| 2026-05-06 16:58 | 42.93247 | 10.54312 | 33924 ft | 447 kts | 326° |
| 2026-05-06 16:58 | 42.99030 | 10.51027 | 33928 ft | 460 kts | 338° |
| 2026-05-06 16:59 | 43.05297 | 10.49078 | 33930 ft | 464 kts | 342° |
| 2026-05-06 16:59 | 43.11644 | 10.47416 | 33930 ft | 464 kts | 343° |
| 2026-05-06 17:00 | 43.17995 | 10.45796 | 33936 ft | 465 kts | 342° |
| 2026-05-06 17:00 | 43.24363 | 10.44138 | 33936 ft | 466 kts | 342° |
| 2026-05-06 17:01 | 43.30732 | 10.42457 | 33927 ft | 466 kts | 342° |
| 2026-05-06 17:01 | 43.37103 | 10.40766 | 33935 ft | 466 kts | 342° |
| 2026-05-06 17:02 | 43.43469 | 10.39072 | 33935 ft | 466 kts | 342° |
| 2026-05-06 17:02 | 43.49831 | 10.37378 | 33934 ft | 466 kts | 342° |
| 2026-05-06 17:03 | 43.56191 | 10.35679 | 33947 ft | 466 kts | 342° |
| 2026-05-06 17:03 | 43.62541 | 10.33981 | 33938 ft | 464 kts | 342° |
| 2026-05-06 17:04 | 43.68881 | 10.32281 | 33935 ft | 464 kts | 342° |
| 2026-05-06 17:04 | 43.75219 | 10.30577 | 33937 ft | 464 kts | 342° |
| 2026-05-06 17:05 | 43.81538 | 10.28843 | 33928 ft | 459 kts | 339° |
| 2026-05-06 17:05 | 43.86424 | 10.26303 | 33926 ft | 448 kts | 328° |
| 2026-05-06 17:06 | 43.91848 | 10.22767 | 33924 ft | 446 kts | 326° |
| 2026-05-06 17:06 | 43.97404 | 10.18939 | 33920 ft | 446 kts | 325° |
| 2026-05-06 17:07 | 44.02952 | 10.15094 | 33762 ft | 446 kts | 326° |
| 2026-05-06 17:07 | 44.05721 | 10.13186 | 33350 ft | 442 kts | 326° |
| 2026-05-06 17:07 | 44.08476 | 10.11296 | 32722 ft | 442 kts | 326° |
| 2026-05-06 17:07 | 44.11244 | 10.09393 | 31905 ft | 446 kts | 326° |
| 2026-05-06 17:08 | 44.14042 | 10.07469 | 31105 ft | 450 kts | 326° |
| 2026-05-06 17:08 | 44.16860 | 10.05530 | 30269 ft | 453 kts | 325° |
| 2026-05-06 17:08 | 44.19694 | 10.03581 | 29326 ft | 456 kts | 326° |
| 2026-05-06 17:08 | 44.22542 | 10.01621 | 28536 ft | 454 kts | 326° |
| 2026-05-06 17:09 | 44.25351 | 9.99692 | 27952 ft | 447 kts | 326° |
| 2026-05-06 17:09 | 44.28119 | 9.97788 | 27295 ft | 441 kts | 326° |
| 2026-05-06 17:09 | 44.30856 | 9.95898 | 26632 ft | 437 kts | 326° |
| 2026-05-06 17:09 | 44.33529 | 9.94051 | 25996 ft | 433 kts | 326° |
| 2026-05-06 17:10 | 44.36217 | 9.92189 | 25353 ft | 429 kts | 327° |
| 2026-05-06 17:10 | 44.38881 | 9.90343 | 24711 ft | 426 kts | 327° |
| 2026-05-06 17:10 | 44.41519 | 9.88513 | 24172 ft | 420 kts | 327° |
| 2026-05-06 17:10 | 44.44103 | 9.86721 | 23914 ft | 410 kts | 327° |
| 2026-05-06 17:11 | 44.46515 | 9.84681 | 23868 ft | 400 kts | 315° |
| 2026-05-06 17:11 | 44.48468 | 9.81993 | 23871 ft | 390 kts | 304° |
| 2026-05-06 17:11 | 44.50189 | 9.79076 | 23867 ft | 388 kts | 301° |
| 2026-05-06 17:11 | 44.51865 | 9.76124 | 23789 ft | 387 kts | 301° |
| 2026-05-06 17:12 | 44.53533 | 9.73177 | 23088 ft | 386 kts | 301° |
| 2026-05-06 17:12 | 44.55217 | 9.70201 | 21958 ft | 393 kts | 301° |
| 2026-05-06 17:12 | 44.56925 | 9.67193 | 20974 ft | 395 kts | 302° |
| 2026-05-06 17:12 | 44.58633 | 9.64195 | 20278 ft | 389 kts | 302° |
| 2026-05-06 17:13 | 44.60318 | 9.61245 | 19476 ft | 387 kts | 302° |
| 2026-05-06 17:13 | 44.61986 | 9.58315 | 18801 ft | 381 kts | 302° |
| 2026-05-06 17:13 | 44.63634 | 9.55414 | 18021 ft | 379 kts | 303° |
| 2026-05-06 17:13 | 44.65316 | 9.52433 | 17464 ft | 408 kts | 303° |
| 2026-05-06 17:14 | 44.67129 | 9.49217 | 17723 ft | 419 kts | 303° |
| 2026-05-06 17:14 | 44.68885 | 9.46143 | 17715 ft | 391 kts | 303° |
| 2026-05-06 17:14 | 44.70545 | 9.43233 | 17401 ft | 373 kts | 303° |
| 2026-05-06 17:14 | 44.72141 | 9.40416 | 16675 ft | 367 kts | 303° |
| 2026-05-06 17:15 | 44.73788 | 9.37660 | 15812 ft | 371 kts | 309° |
| 2026-05-06 17:15 | 44.75905 | 9.35563 | 15134 ft | 378 kts | 329° |
| 2026-05-06 17:15 | 44.78439 | 9.34617 | 14392 ft | 386 kts | 349° |
| 2026-05-06 17:15 | 44.81094 | 9.34301 | 13765 ft | 381 kts | 353° |
| 2026-05-06 17:16 | 44.83730 | 9.34083 | 12924 ft | 379 kts | 353° |
| 2026-05-06 17:16 | 44.86348 | 9.33862 | 12169 ft | 374 kts | 354° |
| 2026-05-06 17:16 | 44.88924 | 9.33628 | 11508 ft | 367 kts | 353° |
| 2026-05-06 17:16 | 44.91433 | 9.33389 | 11079 ft | 355 kts | 352° |
| 2026-05-06 17:17 | 44.93841 | 9.33150 | 10812 ft | 338 kts | 353° |
| 2026-05-06 17:17 | 44.96132 | 9.32915 | 10590 ft | 322 kts | 352° |
| 2026-05-06 17:17 | 44.98324 | 9.32686 | 10333 ft | 310 kts | 352° |
| 2026-05-06 17:17 | 45.00449 | 9.32461 | 9894 ft | 305 kts | 352° |
| 2026-05-06 17:18 | 45.02565 | 9.32232 | 9328 ft | 305 kts | 353° |
| 2026-05-06 17:18 | 45.04668 | 9.32006 | 8811 ft | 301 kts | 353° |
| 2026-05-06 17:18 | 45.06750 | 9.31784 | 8285 ft | 299 kts | 353° |
| 2026-05-06 17:18 | 45.08809 | 9.31564 | 7841 ft | 294 kts | 353° |
| 2026-05-06 17:19 | 45.10841 | 9.31344 | 7416 ft | 291 kts | 353° |
| 2026-05-06 17:19 | 45.12814 | 9.31131 | 7217 ft | 278 kts | 353° |
| 2026-05-06 17:19 | 45.14695 | 9.30903 | 7054 ft | 265 kts | 352° |
| 2026-05-06 17:19 | 45.16493 | 9.30677 | 6866 ft | 255 kts | 353° |
| 2026-05-06 17:20 | 45.18229 | 9.30498 | 6710 ft | 245 kts | 353° |
| 2026-05-06 17:20 | 45.19933 | 9.30328 | 6262 ft | 249 kts | 353° |
| 2026-05-06 17:20 | 45.21676 | 9.30156 | 5839 ft | 252 kts | 355° |
| 2026-05-06 17:20 | 45.23449 | 9.29974 | 5264 ft | 258 kts | 354° |
| 2026-05-06 17:21 | 45.25180 | 9.29792 | 5040 ft | 240 kts | 354° |
| 2026-05-06 17:21 | 45.26790 | 9.29615 | 4837 ft | 224 kts | 354° |
| 2026-05-06 17:21 | 45.28351 | 9.29436 | 4160 ft | 232 kts | 354° |
| 2026-05-06 17:21 | 45.30024 | 9.29238 | 3275 ft | 246 kts | 354° |
| 2026-05-06 17:22 | 45.31692 | 9.29057 | 2876 ft | 237 kts | 355° |
| 2026-05-06 17:22 | 45.33262 | 9.28895 | 2809 ft | 214 kts | 355° |
| 2026-05-06 17:22 | 45.34671 | 9.28751 | 2806 ft | 193 kts | 355° |
| 2026-05-06 17:22 | 45.35938 | 9.28619 | 2802 ft | 172 kts | 355° |
| 2026-05-06 17:23 | 45.37063 | 9.28503 | 2791 ft | 152 kts | 355° |
| 2026-05-06 17:23 | 45.38025 | 9.28276 | 2733 ft | 133 kts | 336° |
| 2026-05-06 17:23 | 45.38994 | 9.27576 | 3403 ft | 176 kts | 322° |
| 2026-05-06 17:23 | 45.39916 | 9.26043 | 3502 ft | 239 kts | 296° |
| 2026-05-06 17:24 | 45.40778 | 9.23699 | 3567 ft | 298 kts | 295° |
| 2026-05-06 17:24 | 45.41823 | 9.20786 | 3800 ft | 356 kts | 295° |
| 2026-05-06 17:24 | 45.42950 | 9.17614 | 5421 ft | 360 kts | 293° |
| 2026-05-06 17:24 | 45.43697 | 9.14278 | 6995 ft | 331 kts | 275° |
| 2026-05-06 17:25 | 45.43591 | 9.11381 | 8013 ft | 263 kts | 251° |
| 2026-05-06 17:25 | 45.43032 | 9.09135 | 8522 ft | 222 kts | 244° |
| 2026-05-06 17:25 | 45.42351 | 9.07353 | 8868 ft | 191 kts | 233° |
| 2026-05-06 17:25 | 45.41498 | 9.05971 | 9097 ft | 185 kts | 219° |
| 2026-05-06 17:26 | 45.40423 | 9.04986 | 9177 ft | 184 kts | 204° |
| 2026-05-06 17:26 | 45.39184 | 9.04523 | 9199 ft | 186 kts | 187° |
| 2026-05-06 17:26 | 45.37890 | 9.04646 | 9204 ft | 189 kts | 170° |
| 2026-05-06 17:26 | 45.36663 | 9.05377 | 9199 ft | 195 kts | 150° |
| 2026-05-06 17:27 | 45.35673 | 9.06720 | 9171 ft | 200 kts | 135° |
| 2026-05-06 17:27 | 45.34816 | 9.08286 | 9148 ft | 201 kts | 132° |
| 2026-05-06 17:27 | 45.33977 | 9.09880 | 9137 ft | 202 kts | 132° |
| 2026-05-06 17:27 | 45.33132 | 9.11470 | 9036 ft | 202 kts | 133° |
| 2026-05-06 17:28 | 45.32277 | 9.13049 | 8927 ft | 201 kts | 133° |
| 2026-05-06 17:28 | 45.31420 | 9.14616 | 8837 ft | 201 kts | 133° |
| 2026-05-06 17:28 | 45.30563 | 9.16177 | 8754 ft | 200 kts | 133° |
| 2026-05-06 17:28 | 45.29705 | 9.17731 | 8664 ft | 200 kts | 133° |
| 2026-05-06 17:29 | 45.28843 | 9.19291 | 8417 ft | 200 kts | 133° |
| 2026-05-06 17:29 | 45.27988 | 9.20838 | 8204 ft | 198 kts | 133° |
| 2026-05-06 17:29 | 45.27087 | 9.22284 | 7983 ft | 193 kts | 143° |
| 2026-05-06 17:29 | 45.26019 | 9.23408 | 7738 ft | 189 kts | 156° |
| 2026-05-06 17:30 | 45.24831 | 9.24160 | 7505 ft | 186 kts | 162° |
| 2026-05-06 17:30 | 45.23628 | 9.24812 | 7275 ft | 184 kts | 163° |
| 2026-05-06 17:30 | 45.22432 | 9.25446 | 7055 ft | 183 kts | 163° |
| 2026-05-06 17:30 | 45.21237 | 9.26075 | 6835 ft | 183 kts | 163° |
| 2026-05-06 17:31 | 45.20033 | 9.26638 | 6607 ft | 182 kts | 168° |
| 2026-05-06 17:31 | 45.18777 | 9.27046 | 6184 ft | 192 kts | 166° |
| 2026-05-06 17:31 | 45.17536 | 9.27975 | 5598 ft | 213 kts | 141° |
| 2026-05-06 17:31 | 45.16766 | 9.29834 | 5007 ft | 233 kts | 102° |
| 2026-05-06 17:32 | 45.17010 | 9.32140 | 4416 ft | 249 kts | 62° |
| 2026-05-06 17:32 | 45.18256 | 9.33821 | 3923 ft | 253 kts | 23° |
| 2026-05-06 17:32 | 45.19950 | 9.34229 | 3603 ft | 246 kts | 2° |
| 2026-05-06 17:32 | 45.21680 | 9.33966 | 3046 ft | 254 kts | 343° |
| 2026-05-06 17:33 | 45.23207 | 9.32803 | 2816 ft | 245 kts | 315° |
| 2026-05-06 17:33 | 45.24074 | 9.30838 | 2824 ft | 228 kts | 299° |
| 2026-05-06 17:33 | 45.25206 | 9.29463 | 2816 ft | 210 kts | 344° |
| 2026-05-06 17:33 | 45.26586 | 9.29380 | 2830 ft | 193 kts | 7° |
| 2026-05-06 17:34 | 45.27920 | 9.29462 | 2840 ft | 193 kts | 358° |
| 2026-05-06 17:34 | 45.29269 | 9.29342 | 2843 ft | 195 kts | 354° |
| 2026-05-06 17:34 | 45.30626 | 9.29188 | 2703 ft | 198 kts | 354° |
| 2026-05-06 17:34 | 45.31962 | 9.29043 | 2581 ft | 183 kts | 354° |
| 2026-05-06 17:35 | 45.33175 | 9.28913 | 2462 ft | 166 kts | 354° |
| 2026-05-06 17:35 | 45.34280 | 9.28795 | 2287 ft | 154 kts | 354° |
| 2026-05-06 17:35 | 45.35303 | 9.28686 | 2153 ft | 145 kts | 354° |
| 2026-05-06 17:36 | 45.37310 | 9.28474 | 1599 ft | 146 kts | 355° |
| 2026-05-06 17:36 | 45.38341 | 9.28365 | 1301 ft | 148 kts | 355° |
| 2026-05-06 17:36 | 45.39331 | 9.28259 | 1129 ft | 138 kts | 356° |
| 2026-05-06 17:36 | 45.40263 | 9.28158 | 926 ft | 134 kts | 357° |
| 2026-05-06 17:37 | 45.41181 | 9.28063 | 700 ft | 135 kts | 356° |
| 2026-05-06 17:37 | 45.42058 | 9.27968 | 621 ft | 119 kts | 358° |
| 2026-05-06 17:37 | 45.42834 | 9.27891 | 475 ft | 106 kts | 357° |
| 2026-05-06 17:37 | 45.43527 | 9.27817 | 370 ft | 94 kts | 356° |
| 2026-05-06 17:38 | 45.44058 | 9.27750 | 354 ft | 47 kts | 355° |
| 2026-05-06 17:38 | 45.44284 | 9.27732 | 358 ft | 30 kts | 356° |
| 2026-05-06 17:38 | 45.44490 | 9.27713 | 360 ft | 29 kts | 355° |
| 2026-05-06 17:38 | 45.44689 | 9.27688 | 362 ft | 29 kts | 355° |
| 2026-05-06 17:39 | 45.44885 | 9.27668 | 366 ft | 29 kts | 355° |
| 2026-05-06 17:39 | 45.45096 | 9.27647 | 364 ft | 31 kts | 356° |
| 2026-05-06 17:39 | 45.45280 | 9.27646 | 362 ft | 22 kts | 18° |
| 2026-05-06 17:39 | 45.45393 | 9.27721 | 370 ft | 9 kts | 27° |
| 2026-05-06 17:40 | 45.45407 | 9.27731 | 366 ft | 0 kts | 28° |
| 2026-05-06 17:40 | 45.45426 | 9.27746 | 367 ft | 10 kts | 30° |
| 2026-05-06 17:40 | 45.45459 | 9.27827 | 366 ft | 9 kts | 89° |
| 2026-05-06 17:40 | 45.45459 | 9.27926 | 365 ft | 11 kts | 88° |
| 2026-05-06 17:41 | 45.45459 | 9.28039 | 366 ft | 12 kts | 91° |
| 2026-05-06 17:41 | 45.45451 | 9.28129 | 365 ft | 6 kts | 122° |
| 2026-05-06 17:41 | 45.45400 | 9.28151 | 367 ft | 11 kts | 183° |
| 2026-05-06 17:41 | 45.45323 | 9.28117 | 365 ft | 12 kts | 207° |
| 2026-05-06 17:42 | 45.45240 | 9.28058 | 366 ft | 14 kts | 202° |
| 2026-05-06 17:42 | 45.45172 | 9.28044 | 365 ft | 3 kts | 213° |
| 2026-05-06 17:42 | 45.45166 | 9.28018 | 370 ft | 6 kts | 260° |
| 2026-05-06 17:42 | 45.45166 | 9.27973 | 368 ft | 0 kts | 270° |